sensor_id;sensor_type;location;lat;lon;timestamp;temperature;humidity
82388;DHT22;72027;47.420;9.310;2023-08-07T00:01:57;21.50;95.10
82388;DHT22;72027;47.420;9.310;2023-08-07T00:04:23;21.50;95.10
82388;DHT22;72027;47.420;9.310;2023-08-07T00:06:50;21.50;95.10
82388;DHT22;72027;47.420;9.310;2023-08-07T00:09:17;21.50;95.00
82388;DHT22;72027;47.420;9.310;2023-08-07T00:11:43;21.50;95.00
82388;DHT22;72027;47.420;9.310;2023-08-07T00:14:10;21.50;95.10
82388;DHT22;72027;47.420;9.310;2023-08-07T00:16:37;21.50;95.10
82388;DHT22;72027;47.420;9.310;2023-08-07T00:19:03;21.50;95.10
82388;DHT22;72027;47.420;9.310;2023-08-07T00:21:30;21.50;95.10
82388;DHT22;72027;47.420;9.310;2023-08-07T00:23:57;21.50;95.10
82388;DHT22;72027;47.420;9.310;2023-08-07T00:26:23;21.50;95.10
82388;DHT22;72027;47.420;9.310;2023-08-07T00:28:50;21.50;95.10
82388;DHT22;72027;47.420;9.310;2023-08-07T00:31:17;21.50;95.10
82388;DHT22;72027;47.420;9.310;2023-08-07T00:33:44;21.40;95.10
82388;DHT22;72027;47.420;9.310;2023-08-07T00:36:11;21.50;95.10
82388;DHT22;72027;47.420;9.310;2023-08-07T00:38:37;21.50;95.10
82388;DHT22;72027;47.420;9.310;2023-08-07T00:41:04;21.50;95.10
82388;DHT22;72027;47.420;9.310;2023-08-07T00:43:34;21.50;95.20
82388;DHT22;72027;47.420;9.310;2023-08-07T00:46:01;21.50;95.10
82388;DHT22;72027;47.420;9.310;2023-08-07T00:48:28;21.50;95.10
82388;DHT22;72027;47.420;9.310;2023-08-07T00:50:56;21.50;95.10
82388;DHT22;72027;47.420;9.310;2023-08-07T00:53:23;21.40;95.10
82388;DHT22;72027;47.420;9.310;2023-08-07T00:55:50;21.40;95.10
82388;DHT22;72027;47.420;9.310;2023-08-07T00:58:17;21.50;95.20
82388;DHT22;72027;47.420;9.310;2023-08-07T01:00:44;21.50;95.10
82388;DHT22;72027;47.420;9.310;2023-08-07T01:03:12;21.40;95.20
82388;DHT22;72027;47.420;9.310;2023-08-07T01:05:40;21.40;95.10
82388;DHT22;72027;47.420;9.310;2023-08-07T01:08:07;21.50;95.10
82388;DHT22;72027;47.420;9.310;2023-08-07T01:10:50;21.40;95.10
82388;DHT22;72027;47.420;9.310;2023-08-07T01:13:51;21.40;95.10
82388;DHT22;72027;47.420;9.310;2023-08-07T01:16:36;21.40;95.30
82388;DHT22;72027;47.420;9.310;2023-08-07T01:19:10;21.40;95.10
82388;DHT22;72027;47.420;9.310;2023-08-07T01:21:45;21.40;95.20
82388;DHT22;72027;47.420;9.310;2023-08-07T01:24:14;21.40;95.10
82388;DHT22;72027;47.420;9.310;2023-08-07T01:26:44;21.40;95.20
82388;DHT22;72027;47.420;9.310;2023-08-07T01:29:34;21.40;95.20
82388;DHT22;72027;47.420;9.310;2023-08-07T01:32:07;21.40;95.20
82388;DHT22;72027;47.420;9.310;2023-08-07T01:34:34;21.40;95.20
82388;DHT22;72027;47.420;9.310;2023-08-07T01:37:03;21.40;95.20
82388;DHT22;72027;47.420;9.310;2023-08-07T01:39:30;21.40;95.20
82388;DHT22;72027;47.420;9.310;2023-08-07T01:41:57;21.40;95.20
82388;DHT22;72027;47.420;9.310;2023-08-07T01:44:26;21.40;95.20
82388;DHT22;72027;47.420;9.310;2023-08-07T01:46:53;21.40;95.20
82388;DHT22;72027;47.420;9.310;2023-08-07T01:49:20;21.40;95.20
82388;DHT22;72027;47.420;9.310;2023-08-07T01:51:47;21.40;95.20
82388;DHT22;72027;47.420;9.310;2023-08-07T01:54:14;21.40;95.20
82388;DHT22;72027;47.420;9.310;2023-08-07T01:56:41;21.40;95.20
82388;DHT22;72027;47.420;9.310;2023-08-07T01:59:08;21.40;95.10
82388;DHT22;72027;47.420;9.310;2023-08-07T02:01:34;21.40;95.20
82388;DHT22;72027;47.420;9.310;2023-08-07T02:04:01;21.40;95.20
82388;DHT22;72027;47.420;9.310;2023-08-07T02:06:28;21.40;95.20
82388;DHT22;72027;47.420;9.310;2023-08-07T02:08:55;21.30;95.20
82388;DHT22;72027;47.420;9.310;2023-08-07T02:11:22;21.40;95.20
82388;DHT22;72027;47.420;9.310;2023-08-07T02:13:49;21.40;95.20
82388;DHT22;72027;47.420;9.310;2023-08-07T02:16:16;21.40;95.30
82388;DHT22;72027;47.420;9.310;2023-08-07T02:18:42;21.30;95.20
82388;DHT22;72027;47.420;9.310;2023-08-07T02:21:09;21.30;95.20
82388;DHT22;72027;47.420;9.310;2023-08-07T02:23:36;21.30;95.20
82388;DHT22;72027;47.420;9.310;2023-08-07T02:26:02;21.30;95.20
82388;DHT22;72027;47.420;9.310;2023-08-07T02:28:29;21.30;95.60
82388;DHT22;72027;47.420;9.310;2023-08-07T02:30:55;21.30;95.30
82388;DHT22;72027;47.420;9.310;2023-08-07T02:33:22;21.30;95.20
82388;DHT22;72027;47.420;9.310;2023-08-07T02:35:49;21.30;95.20
82388;DHT22;72027;47.420;9.310;2023-08-07T02:38:17;21.30;95.20
82388;DHT22;72027;47.420;9.310;2023-08-07T02:40:44;21.30;95.30
82388;DHT22;72027;47.420;9.310;2023-08-07T02:43:10;21.30;95.20
82388;DHT22;72027;47.420;9.310;2023-08-07T02:45:37;21.30;95.20
82388;DHT22;72027;47.420;9.310;2023-08-07T02:48:04;21.30;95.30
82388;DHT22;72027;47.420;9.310;2023-08-07T02:50:31;21.30;95.30
82388;DHT22;72027;47.420;9.310;2023-08-07T02:53:00;21.30;95.20
82388;DHT22;72027;47.420;9.310;2023-08-07T02:55:27;21.30;95.30
82388;DHT22;72027;47.420;9.310;2023-08-07T02:57:53;21.30;95.30
82388;DHT22;72027;47.420;9.310;2023-08-07T03:00:20;21.30;95.30
82388;DHT22;72027;47.420;9.310;2023-08-07T03:02:50;21.30;95.30
82388;DHT22;72027;47.420;9.310;2023-08-07T03:05:16;21.30;95.30
82388;DHT22;72027;47.420;9.310;2023-08-07T03:07:43;21.30;95.30
82388;DHT22;72027;47.420;9.310;2023-08-07T03:10:10;21.30;95.30
82388;DHT22;72027;47.420;9.310;2023-08-07T03:12:37;21.30;95.40
82388;DHT22;72027;47.420;9.310;2023-08-07T03:15:05;21.30;95.40
82388;DHT22;72027;47.420;9.310;2023-08-07T03:17:32;21.30;95.40
82388;DHT22;72027;47.420;9.310;2023-08-07T03:19:59;21.30;95.40
82388;DHT22;72027;47.420;9.310;2023-08-07T03:22:25;21.30;95.40
82388;DHT22;72027;47.420;9.310;2023-08-07T03:24:52;21.30;95.50
82388;DHT22;72027;47.420;9.310;2023-08-07T03:27:19;21.20;95.40
82388;DHT22;72027;47.420;9.310;2023-08-07T03:29:45;21.30;95.50
82388;DHT22;72027;47.420;9.310;2023-08-07T03:32:12;21.30;95.40
82388;DHT22;72027;47.420;9.310;2023-08-07T03:34:39;21.20;95.40
82388;DHT22;72027;47.420;9.310;2023-08-07T03:37:05;21.20;95.40
82388;DHT22;72027;47.420;9.310;2023-08-07T03:39:32;21.20;95.40
82388;DHT22;72027;47.420;9.310;2023-08-07T03:41:59;21.20;95.40
82388;DHT22;72027;47.420;9.310;2023-08-07T03:44:26;21.20;95.60
82388;DHT22;72027;47.420;9.310;2023-08-07T03:46:52;21.20;95.40
82388;DHT22;72027;47.420;9.310;2023-08-07T03:49:22;21.30;95.50
82388;DHT22;72027;47.420;9.310;2023-08-07T03:51:49;21.20;95.40
82388;DHT22;72027;47.420;9.310;2023-08-07T03:54:16;21.20;95.50
82388;DHT22;72027;47.420;9.310;2023-08-07T03:56:43;21.20;95.50
82388;DHT22;72027;47.420;9.310;2023-08-07T03:59:09;21.20;95.50
82388;DHT22;72027;47.420;9.310;2023-08-07T04:01:36;21.20;95.50
82388;DHT22;72027;47.420;9.310;2023-08-07T04:04:03;21.20;95.50
82388;DHT22;72027;47.420;9.310;2023-08-07T04:06:30;21.20;95.50
82388;DHT22;72027;47.420;9.310;2023-08-07T04:08:56;21.20;95.50
82388;DHT22;72027;47.420;9.310;2023-08-07T04:11:23;21.20;95.50
82388;DHT22;72027;47.420;9.310;2023-08-07T04:13:49;21.20;95.40
82388;DHT22;72027;47.420;9.310;2023-08-07T04:16:16;21.20;95.50
82388;DHT22;72027;47.420;9.310;2023-08-07T04:18:43;21.20;95.50
82388;DHT22;72027;47.420;9.310;2023-08-07T04:21:10;21.20;95.50
82388;DHT22;72027;47.420;9.310;2023-08-07T04:23:37;21.20;95.50
82388;DHT22;72027;47.420;9.310;2023-08-07T04:26:04;21.20;95.50
82388;DHT22;72027;47.420;9.310;2023-08-07T04:28:31;21.10;95.40
82388;DHT22;72027;47.420;9.310;2023-08-07T04:30:58;21.20;95.50
82388;DHT22;72027;47.420;9.310;2023-08-07T04:33:25;21.20;97.40
82388;DHT22;72027;47.420;9.310;2023-08-07T04:35:51;21.10;96.80
82388;DHT22;72027;47.420;9.310;2023-08-07T04:38:19;21.10;93.10
82388;DHT22;72027;47.420;9.310;2023-08-07T04:40:50;21.10;88.40
82388;DHT22;72027;47.420;9.310;2023-08-07T04:43:17;21.10;89.00
82388;DHT22;72027;47.420;9.310;2023-08-07T04:45:46;21.10;81.40
82388;DHT22;72027;47.420;9.310;2023-08-07T04:48:13;21.00;71.80
82388;DHT22;72027;47.420;9.310;2023-08-07T04:50:41;21.00;70.70
82388;DHT22;72027;47.420;9.310;2023-08-07T04:53:08;20.90;69.20
82388;DHT22;72027;47.420;9.310;2023-08-07T04:55:35;21.00;73.00
82388;DHT22;72027;47.420;9.310;2023-08-07T04:58:01;20.90;68.30
82388;DHT22;72027;47.420;9.310;2023-08-07T05:00:28;20.90;66.80
82388;DHT22;72027;47.420;9.310;2023-08-07T05:02:55;20.90;75.60
82388;DHT22;72027;47.420;9.310;2023-08-07T05:05:22;20.90;68.40
82388;DHT22;72027;47.420;9.310;2023-08-07T05:07:50;20.90;69.10
82388;DHT22;72027;47.420;9.310;2023-08-07T05:10:17;20.80;67.10
82388;DHT22;72027;47.420;9.310;2023-08-07T05:12:44;20.80;67.10
82388;DHT22;72027;47.420;9.310;2023-08-07T05:15:10;20.80;67.50
82388;DHT22;72027;47.420;9.310;2023-08-07T05:17:37;20.80;66.80
82388;DHT22;72027;47.420;9.310;2023-08-07T05:20:04;20.80;76.90
82388;DHT22;72027;47.420;9.310;2023-08-07T05:22:32;20.80;79.50
82388;DHT22;72027;47.420;9.310;2023-08-07T05:24:59;20.80;79.90
82388;DHT22;72027;47.420;9.310;2023-08-07T05:27:25;20.80;79.40
82388;DHT22;72027;47.420;9.310;2023-08-07T05:29:52;20.80;81.70
82388;DHT22;72027;47.420;9.310;2023-08-07T05:32:19;20.70;82.30
82388;DHT22;72027;47.420;9.310;2023-08-07T05:34:45;20.80;84.20
82388;DHT22;72027;47.420;9.310;2023-08-07T05:37:12;20.80;85.30
82388;DHT22;72027;47.420;9.310;2023-08-07T05:39:39;20.80;85.50
82388;DHT22;72027;47.420;9.310;2023-08-07T05:42:05;20.80;85.60
82388;DHT22;72027;47.420;9.310;2023-08-07T05:44:34;20.80;85.60
82388;DHT22;72027;47.420;9.310;2023-08-07T05:47:01;20.80;85.70
82388;DHT22;72027;47.420;9.310;2023-08-07T05:49:28;20.80;85.80
82388;DHT22;72027;47.420;9.310;2023-08-07T05:51:54;20.80;86.00
82388;DHT22;72027;47.420;9.310;2023-08-07T05:54:22;20.80;86.20
82388;DHT22;72027;47.420;9.310;2023-08-07T05:56:48;20.80;86.20
82388;DHT22;72027;47.420;9.310;2023-08-07T05:59:15;20.80;86.40
82388;DHT22;72027;47.420;9.310;2023-08-07T06:01:42;20.80;86.60
82388;DHT22;72027;47.420;9.310;2023-08-07T06:04:09;20.80;86.70
82388;DHT22;72027;47.420;9.310;2023-08-07T06:06:36;20.80;87.00
82388;DHT22;72027;47.420;9.310;2023-08-07T06:09:05;20.80;87.20
82388;DHT22;72027;47.420;9.310;2023-08-07T06:11:33;20.80;87.20
82388;DHT22;72027;47.420;9.310;2023-08-07T06:14:00;20.80;87.40
82388;DHT22;72027;47.420;9.310;2023-08-07T06:16:27;20.80;87.80
82388;DHT22;72027;47.420;9.310;2023-08-07T06:18:54;20.80;87.90
82388;DHT22;72027;47.420;9.310;2023-08-07T06:21:21;20.80;87.80
82388;DHT22;72027;47.420;9.310;2023-08-07T06:23:47;20.80;88.30
82388;DHT22;72027;47.420;9.310;2023-08-07T06:26:14;20.80;88.30
82388;DHT22;72027;47.420;9.310;2023-08-07T06:28:42;20.80;89.20
82388;DHT22;72027;47.420;9.310;2023-08-07T06:31:10;20.80;89.00
82388;DHT22;72027;47.420;9.310;2023-08-07T06:33:37;20.80;89.10
82388;DHT22;72027;47.420;9.310;2023-08-07T06:36:06;20.80;89.40
82388;DHT22;72027;47.420;9.310;2023-08-07T06:38:32;20.80;89.50
82388;DHT22;72027;47.420;9.310;2023-08-07T06:40:59;20.80;89.30
82388;DHT22;72027;47.420;9.310;2023-08-07T06:43:26;20.80;89.30
82388;DHT22;72027;47.420;9.310;2023-08-07T06:45:54;20.80;89.40
82388;DHT22;72027;47.420;9.310;2023-08-07T06:48:22;20.80;89.60
82388;DHT22;72027;47.420;9.310;2023-08-07T06:50:49;20.80;89.70
82388;DHT22;72027;47.420;9.310;2023-08-07T06:53:17;20.80;90.30
82388;DHT22;72027;47.420;9.310;2023-08-07T06:55:44;20.80;93.60
82388;DHT22;72027;47.420;9.310;2023-08-07T06:58:11;20.80;93.80
82388;DHT22;72027;47.420;9.310;2023-08-07T07:00:38;20.80;91.90
82388;DHT22;72027;47.420;9.310;2023-08-07T07:03:04;20.90;92.70
82388;DHT22;72027;47.420;9.310;2023-08-07T07:05:32;20.90;94.50
82388;DHT22;72027;47.420;9.310;2023-08-07T07:07:59;20.80;95.10
82388;DHT22;72027;47.420;9.310;2023-08-07T07:10:26;20.90;95.90
82388;DHT22;72027;47.420;9.310;2023-08-07T07:12:53;20.80;97.20
82388;DHT22;72027;47.420;9.310;2023-08-07T07:15:19;20.90;96.30
82388;DHT22;72027;47.420;9.310;2023-08-07T07:17:46;21.00;96.00
82388;DHT22;72027;47.420;9.310;2023-08-07T07:20:13;20.90;95.70
82388;DHT22;72027;47.420;9.310;2023-08-07T07:22:40;20.90;95.30
82388;DHT22;72027;47.420;9.310;2023-08-07T07:25:07;20.90;95.10
82388;DHT22;72027;47.420;9.310;2023-08-07T07:27:34;21.00;96.10
82388;DHT22;72027;47.420;9.310;2023-08-07T07:30:00;21.00;95.80
82388;DHT22;72027;47.420;9.310;2023-08-07T07:32:27;21.00;94.40
82388;DHT22;72027;47.420;9.310;2023-08-07T07:34:54;21.00;93.50
82388;DHT22;72027;47.420;9.310;2023-08-07T07:37:21;21.00;94.00
82388;DHT22;72027;47.420;9.310;2023-08-07T07:39:48;21.00;94.80
82388;DHT22;72027;47.420;9.310;2023-08-07T07:42:14;21.10;94.40
82388;DHT22;72027;47.420;9.310;2023-08-07T07:44:41;21.10;93.50
82388;DHT22;72027;47.420;9.310;2023-08-07T07:47:08;21.10;94.80
82388;DHT22;72027;47.420;9.310;2023-08-07T07:49:43;21.10;95.40
82388;DHT22;72027;47.420;9.310;2023-08-07T07:52:10;21.00;95.60
82388;DHT22;72027;47.420;9.310;2023-08-07T07:54:37;21.00;95.80
82388;DHT22;72027;47.420;9.310;2023-08-07T07:57:04;21.10;96.10
82388;DHT22;72027;47.420;9.310;2023-08-07T07:59:31;21.10;96.20
82388;DHT22;72027;47.420;9.310;2023-08-07T08:01:57;21.10;96.30
82388;DHT22;72027;47.420;9.310;2023-08-07T08:04:25;21.10;96.40
82388;DHT22;72027;47.420;9.310;2023-08-07T08:06:52;21.10;96.60
82388;DHT22;72027;47.420;9.310;2023-08-07T08:09:18;21.10;96.60
82388;DHT22;72027;47.420;9.310;2023-08-07T08:11:45;21.10;96.70
82388;DHT22;72027;47.420;9.310;2023-08-07T08:14:12;21.20;96.30
82388;DHT22;72027;47.420;9.310;2023-08-07T08:16:39;21.20;96.30
82388;DHT22;72027;47.420;9.310;2023-08-07T08:19:06;21.20;95.90
82388;DHT22;72027;47.420;9.310;2023-08-07T08:21:34;21.30;96.50
82388;DHT22;72027;47.420;9.310;2023-08-07T08:24:01;21.30;96.40
82388;DHT22;72027;47.420;9.310;2023-08-07T08:26:28;21.30;96.10
82388;DHT22;72027;47.420;9.310;2023-08-07T08:28:55;21.30;95.90
82388;DHT22;72027;47.420;9.310;2023-08-07T08:31:22;21.30;95.80
82388;DHT22;72027;47.420;9.310;2023-08-07T08:33:50;21.30;95.60
82388;DHT22;72027;47.420;9.310;2023-08-07T08:36:17;21.30;95.50
82388;DHT22;72027;47.420;9.310;2023-08-07T08:38:44;21.30;95.30
82388;DHT22;72027;47.420;9.310;2023-08-07T08:41:13;21.30;95.30
82388;DHT22;72027;47.420;9.310;2023-08-07T08:43:40;21.30;96.00
82388;DHT22;72027;47.420;9.310;2023-08-07T08:46:08;21.30;96.50
82388;DHT22;72027;47.420;9.310;2023-08-07T08:48:39;21.30;99.20
82388;DHT22;72027;47.420;9.310;2023-08-07T08:51:08;21.30;97.30
82388;DHT22;72027;47.420;9.310;2023-08-07T08:53:35;21.30;96.20
82388;DHT22;72027;47.420;9.310;2023-08-07T08:56:02;21.30;92.40
82388;DHT22;72027;47.420;9.310;2023-08-07T08:58:29;21.30;92.40
82388;DHT22;72027;47.420;9.310;2023-08-07T09:00:56;21.30;91.50
82388;DHT22;72027;47.420;9.310;2023-08-07T09:03:25;21.30;90.80
82388;DHT22;72027;47.420;9.310;2023-08-07T09:05:58;21.20;88.00
82388;DHT22;72027;47.420;9.310;2023-08-07T09:08:30;21.30;92.00
82388;DHT22;72027;47.420;9.310;2023-08-07T09:10:56;21.30;92.80
82388;DHT22;72027;47.420;9.310;2023-08-07T09:13:24;21.30;93.70
82388;DHT22;72027;47.420;9.310;2023-08-07T09:15:52;21.40;94.90
82388;DHT22;72027;47.420;9.310;2023-08-07T09:18:19;21.40;94.50
82388;DHT22;72027;47.420;9.310;2023-08-07T09:20:47;21.40;92.60
82388;DHT22;72027;47.420;9.310;2023-08-07T09:23:15;21.40;93.00
82388;DHT22;72027;47.420;9.310;2023-08-07T09:25:44;21.40;94.90
82388;DHT22;72027;47.420;9.310;2023-08-07T09:28:11;21.40;94.90
82388;DHT22;72027;47.420;9.310;2023-08-07T09:30:38;21.40;94.50
82388;DHT22;72027;47.420;9.310;2023-08-07T09:33:05;21.40;94.50
82388;DHT22;72027;47.420;9.310;2023-08-07T09:35:33;21.40;94.40
82388;DHT22;72027;47.420;9.310;2023-08-07T09:38:01;21.40;94.30
82388;DHT22;72027;47.420;9.310;2023-08-07T09:40:29;21.40;94.10
82388;DHT22;72027;47.420;9.310;2023-08-07T09:42:56;21.40;93.80
82388;DHT22;72027;47.420;9.310;2023-08-07T09:45:25;21.40;93.70
82388;DHT22;72027;47.420;9.310;2023-08-07T09:48:02;21.50;93.80
82388;DHT22;72027;47.420;9.310;2023-08-07T09:50:30;21.50;93.50
82388;DHT22;72027;47.420;9.310;2023-08-07T09:52:58;21.40;93.40
82388;DHT22;72027;47.420;9.310;2023-08-07T09:55:25;21.40;93.30
82388;DHT22;72027;47.420;9.310;2023-08-07T09:57:52;21.50;93.10
82388;DHT22;72027;47.420;9.310;2023-08-07T10:00:20;21.40;93.00
82388;DHT22;72027;47.420;9.310;2023-08-07T10:02:50;21.50;92.90
82388;DHT22;72027;47.420;9.310;2023-08-07T10:05:18;21.40;92.70
82388;DHT22;72027;47.420;9.310;2023-08-07T10:07:45;21.40;92.80
82388;DHT22;72027;47.420;9.310;2023-08-07T10:10:14;21.50;92.70
82388;DHT22;72027;47.420;9.310;2023-08-07T10:12:41;21.40;92.60
82388;DHT22;72027;47.420;9.310;2023-08-07T10:15:08;21.40;92.70
82388;DHT22;72027;47.420;9.310;2023-08-07T10:17:35;21.40;92.70
82388;DHT22;72027;47.420;9.310;2023-08-07T10:20:02;21.40;92.60
82388;DHT22;72027;47.420;9.310;2023-08-07T10:22:32;21.40;92.50
82388;DHT22;72027;47.420;9.310;2023-08-07T10:25:01;21.40;92.50
82388;DHT22;72027;47.420;9.310;2023-08-07T10:27:32;21.50;92.50
82388;DHT22;72027;47.420;9.310;2023-08-07T10:30:02;21.50;92.50
82388;DHT22;72027;47.420;9.310;2023-08-07T10:32:31;21.40;92.50
82388;DHT22;72027;47.420;9.310;2023-08-07T10:34:59;21.40;92.50
82388;DHT22;72027;47.420;9.310;2023-08-07T10:37:44;21.40;94.20
82388;DHT22;72027;47.420;9.310;2023-08-07T10:40:12;21.40;95.70
82388;DHT22;72027;47.420;9.310;2023-08-07T10:45:22;21.40;97.20
82388;DHT22;72027;47.420;9.310;2023-08-07T10:50:46;21.40;97.90
82388;DHT22;72027;47.420;9.310;2023-08-07T10:53:35;21.40;98.10
82388;DHT22;72027;47.420;9.310;2023-08-07T10:56:03;21.40;98.50
82388;DHT22;72027;47.420;9.310;2023-08-07T11:03:55;21.50;98.40
82388;DHT22;72027;47.420;9.310;2023-08-07T11:06:30;21.50;98.00
82388;DHT22;72027;47.420;9.310;2023-08-07T11:08:59;21.50;82.20
82388;DHT22;72027;47.420;9.310;2023-08-07T11:11:27;21.40;89.30
82388;DHT22;72027;47.420;9.310;2023-08-07T11:13:53;21.40;92.50
82388;DHT22;72027;47.420;9.310;2023-08-07T11:16:20;21.40;91.40
82388;DHT22;72027;47.420;9.310;2023-08-07T11:18:49;21.50;90.20
82388;DHT22;72027;47.420;9.310;2023-08-07T11:21:15;21.50;90.00
82388;DHT22;72027;47.420;9.310;2023-08-07T11:23:42;21.50;89.80
82388;DHT22;72027;47.420;9.310;2023-08-07T11:26:11;21.50;90.00
82388;DHT22;72027;47.420;9.310;2023-08-07T11:28:38;21.50;90.00
82388;DHT22;72027;47.420;9.310;2023-08-07T11:31:05;21.50;90.00
82388;DHT22;72027;47.420;9.310;2023-08-07T11:33:32;21.50;90.00
82388;DHT22;72027;47.420;9.310;2023-08-07T11:35:59;21.50;90.00
82388;DHT22;72027;47.420;9.310;2023-08-07T11:38:38;21.60;90.10
82388;DHT22;72027;47.420;9.310;2023-08-07T11:41:06;21.50;90.00
82388;DHT22;72027;47.420;9.310;2023-08-07T11:43:34;21.50;90.10
82388;DHT22;72027;47.420;9.310;2023-08-07T11:46:09;21.50;90.10
82388;DHT22;72027;47.420;9.310;2023-08-07T11:48:37;21.50;90.00
82388;DHT22;72027;47.420;9.310;2023-08-07T11:51:05;21.60;89.90
82388;DHT22;72027;47.420;9.310;2023-08-07T11:53:35;21.60;90.70
82388;DHT22;72027;47.420;9.310;2023-08-07T11:56:07;21.60;94.40
82388;DHT22;72027;47.420;9.310;2023-08-07T11:58:44;21.50;95.40
82388;DHT22;72027;47.420;9.310;2023-08-07T12:01:16;21.50;96.40
82388;DHT22;72027;47.420;9.310;2023-08-07T12:03:57;21.50;96.90
82388;DHT22;72027;47.420;9.310;2023-08-07T12:06:36;21.50;97.50
82388;DHT22;72027;47.420;9.310;2023-08-07T12:09:03;21.50;97.00
82388;DHT22;72027;47.420;9.310;2023-08-07T12:11:30;21.60;97.60
82388;DHT22;72027;47.420;9.310;2023-08-07T12:14:00;21.50;97.20
82388;DHT22;72027;47.420;9.310;2023-08-07T12:16:32;21.60;97.70
82388;DHT22;72027;47.420;9.310;2023-08-07T12:18:59;21.60;97.90
82388;DHT22;72027;47.420;9.310;2023-08-07T12:21:26;21.60;98.00
82388;DHT22;72027;47.420;9.310;2023-08-07T12:23:57;21.70;98.00
82388;DHT22;72027;47.420;9.310;2023-08-07T12:26:24;21.70;98.50
82388;DHT22;72027;47.420;9.310;2023-08-07T12:28:50;21.70;98.00
82388;DHT22;72027;47.420;9.310;2023-08-07T12:31:18;21.80;97.80
82388;DHT22;72027;47.420;9.310;2023-08-07T12:33:45;21.80;97.90
82388;DHT22;72027;47.420;9.310;2023-08-07T12:36:12;21.80;98.20
82388;DHT22;72027;47.420;9.310;2023-08-07T12:38:43;21.80;98.00
82388;DHT22;72027;47.420;9.310;2023-08-07T12:41:10;21.90;98.60
82388;DHT22;72027;47.420;9.310;2023-08-07T12:43:40;21.90;97.90
82388;DHT22;72027;47.420;9.310;2023-08-07T12:46:07;21.90;96.20
82388;DHT22;72027;47.420;9.310;2023-08-07T12:48:36;21.90;93.30
82388;DHT22;72027;47.420;9.310;2023-08-07T12:51:03;21.90;94.00
82388;DHT22;72027;47.420;9.310;2023-08-07T12:53:30;22.00;90.10
82388;DHT22;72027;47.420;9.310;2023-08-07T12:55:58;21.90;91.00
82388;DHT22;72027;47.420;9.310;2023-08-07T12:58:25;22.00;80.30
82388;DHT22;72027;47.420;9.310;2023-08-07T13:06:21;22.50;79.60
82388;DHT22;72027;47.420;9.310;2023-08-07T13:08:48;22.30;78.40
82388;DHT22;72027;47.420;9.310;2023-08-07T13:11:15;22.10;75.70
82388;DHT22;72027;47.420;9.310;2023-08-07T13:13:41;22.00;76.40
82388;DHT22;72027;47.420;9.310;2023-08-07T13:16:11;21.90;73.20
82388;DHT22;72027;47.420;9.310;2023-08-07T13:18:38;21.80;73.30
82388;DHT22;72027;47.420;9.310;2023-08-07T13:21:05;21.80;73.20
82388;DHT22;72027;47.420;9.310;2023-08-07T13:23:31;21.80;73.00
82388;DHT22;72027;47.420;9.310;2023-08-07T13:25:58;21.70;72.30
82388;DHT22;72027;47.420;9.310;2023-08-07T13:28:25;21.70;72.30
82388;DHT22;72027;47.420;9.310;2023-08-07T13:30:52;21.70;71.30
82388;DHT22;72027;47.420;9.310;2023-08-07T13:33:20;21.70;71.00
82388;DHT22;72027;47.420;9.310;2023-08-07T13:35:47;21.70;70.80
82388;DHT22;72027;47.420;9.310;2023-08-07T13:38:14;21.70;70.00
82388;DHT22;72027;47.420;9.310;2023-08-07T13:40:42;21.80;69.70
82388;DHT22;72027;47.420;9.310;2023-08-07T13:43:11;21.70;67.60
82388;DHT22;72027;47.420;9.310;2023-08-07T13:45:38;21.70;65.90
82388;DHT22;72027;47.420;9.310;2023-08-07T13:48:05;21.60;65.70
82388;DHT22;72027;47.420;9.310;2023-08-07T13:50:33;21.60;64.30
82388;DHT22;72027;47.420;9.310;2023-08-07T13:53:00;21.50;64.20
82388;DHT22;72027;47.420;9.310;2023-08-07T13:55:40;21.50;64.90
82388;DHT22;72027;47.420;9.310;2023-08-07T13:58:07;21.40;65.30
82388;DHT22;72027;47.420;9.310;2023-08-07T14:00:36;21.40;64.90
82388;DHT22;72027;47.420;9.310;2023-08-07T14:03:03;21.40;65.70
82388;DHT22;72027;47.420;9.310;2023-08-07T14:05:30;21.40;66.30
82388;DHT22;72027;47.420;9.310;2023-08-07T14:07:56;21.50;66.60
82388;DHT22;72027;47.420;9.310;2023-08-07T14:10:24;21.50;67.80
82388;DHT22;72027;47.420;9.310;2023-08-07T14:12:51;21.50;68.50
82388;DHT22;72027;47.420;9.310;2023-08-07T14:15:18;21.40;70.40
82388;DHT22;72027;47.420;9.310;2023-08-07T14:17:45;21.40;70.30
82388;DHT22;72027;47.420;9.310;2023-08-07T14:20:12;21.40;72.60
82388;DHT22;72027;47.420;9.310;2023-08-07T14:22:39;21.40;72.60
82388;DHT22;72027;47.420;9.310;2023-08-07T14:25:08;21.40;77.70
82388;DHT22;72027;47.420;9.310;2023-08-07T14:27:35;21.40;82.50
82388;DHT22;72027;47.420;9.310;2023-08-07T14:30:02;21.40;88.30
82388;DHT22;72027;47.420;9.310;2023-08-07T14:32:29;21.40;83.40
82388;DHT22;72027;47.420;9.310;2023-08-07T14:34:56;21.40;82.60
82388;DHT22;72027;47.420;9.310;2023-08-07T14:37:22;21.40;90.40
82388;DHT22;72027;47.420;9.310;2023-08-07T14:39:49;21.40;87.40
82388;DHT22;72027;47.420;9.310;2023-08-07T14:42:16;21.40;71.80
82388;DHT22;72027;47.420;9.310;2023-08-07T14:44:43;21.40;79.40
82388;DHT22;72027;47.420;9.310;2023-08-07T14:47:09;21.40;78.70
82388;DHT22;72027;47.420;9.310;2023-08-07T14:49:36;21.40;78.50
82388;DHT22;72027;47.420;9.310;2023-08-07T14:52:03;21.30;69.10
82388;DHT22;72027;47.420;9.310;2023-08-07T14:54:30;21.30;68.80
82388;DHT22;72027;47.420;9.310;2023-08-07T14:56:57;21.20;66.40
82388;DHT22;72027;47.420;9.310;2023-08-07T14:59:25;21.20;65.00
82388;DHT22;72027;47.420;9.310;2023-08-07T15:01:52;21.10;65.20
82388;DHT22;72027;47.420;9.310;2023-08-07T15:04:18;21.20;72.30
82388;DHT22;72027;47.420;9.310;2023-08-07T15:06:47;21.30;74.00
82388;DHT22;72027;47.420;9.310;2023-08-07T15:09:14;21.40;82.70
82388;DHT22;72027;47.420;9.310;2023-08-07T15:11:41;21.40;77.90
82388;DHT22;72027;47.420;9.310;2023-08-07T15:14:08;21.50;81.40
82388;DHT22;72027;47.420;9.310;2023-08-07T15:16:35;21.50;81.80
82388;DHT22;72027;47.420;9.310;2023-08-07T15:19:04;21.40;82.80
82388;DHT22;72027;47.420;9.310;2023-08-07T15:21:31;21.50;86.10
82388;DHT22;72027;47.420;9.310;2023-08-07T15:23:58;21.50;87.00
82388;DHT22;72027;47.420;9.310;2023-08-07T15:26:24;21.50;89.30
82388;DHT22;72027;47.420;9.310;2023-08-07T15:28:51;21.50;90.90
82388;DHT22;72027;47.420;9.310;2023-08-07T15:31:18;21.50;91.20
82388;DHT22;72027;47.420;9.310;2023-08-07T15:33:45;21.50;91.50
82388;DHT22;72027;47.420;9.310;2023-08-07T15:36:16;21.60;92.00
82388;DHT22;72027;47.420;9.310;2023-08-07T15:38:42;21.60;92.20
82388;DHT22;72027;47.420;9.310;2023-08-07T15:41:12;21.60;92.50
82388;DHT22;72027;47.420;9.310;2023-08-07T15:43:39;21.70;92.80
82388;DHT22;72027;47.420;9.310;2023-08-07T15:46:05;21.70;92.70
82388;DHT22;72027;47.420;9.310;2023-08-07T15:48:32;21.70;92.90
82388;DHT22;72027;47.420;9.310;2023-08-07T15:50:59;21.80;92.90